Aviation Digital Data Service (ADDS)

Output produced by METARs form (1502 UTC 29 May 2017)
found at http://www.aviationweather.gov/adds/metars/
 
GUCY 291400Z 30006KT 9999 TS SCT015 FEW023CB 31/25 Q1013 CB/N/NE/SE NOSIG
TAF GUCY 291100Z 2912/3018 26008KT 9999 SCT015 SCT120 
     TEMPO 2919/2922 TS SCT010 FEW023CB BKN110 
     PROB30 
     TEMPO 2920/3000 17014KT 6000 -TSRA BKN010 FEW020CB BKN100